sensor_id;sensor_type;location;lat;lon;timestamp;pressure;altitude;pressure_sealevel;temperature;humidity
65010;BME280;51556;50.002;22.014;2023-01-19T00:02:17;97948.25;;;4.16;71.31
65010;BME280;51556;50.002;22.014;2023-01-19T00:04:42;97940.81;;;4.14;71.34
65010;BME280;51556;50.002;22.014;2023-01-19T00:07:08;97941.34;;;4.14;71.14
65010;BME280;51556;50.002;22.014;2023-01-19T00:09:33;97946.86;;;4.16;71.26
65010;BME280;51556;50.002;22.014;2023-01-19T00:12:03;97949.10;;;4.17;71.01
65010;BME280;51556;50.002;22.014;2023-01-19T00:14:28;97949.24;;;4.19;70.82
65010;BME280;51556;50.002;22.014;2023-01-19T00:16:54;97947.27;;;4.21;71.36
65010;BME280;51556;50.002;22.014;2023-01-19T00:19:19;97945.44;;;4.25;71.05
65010;BME280;51556;50.002;22.014;2023-01-19T00:21:45;97949.60;;;4.26;70.86
65010;BME280;51556;50.002;22.014;2023-01-19T00:24:10;97952.25;;;4.24;70.59
65010;BME280;51556;50.002;22.014;2023-01-19T00:26:38;97952.89;;;4.19;71.00
65010;BME280;51556;50.002;22.014;2023-01-19T00:29:05;97958.52;;;4.17;71.15
65010;BME280;51556;50.002;22.014;2023-01-19T00:31:33;97966.93;;;4.14;71.01
65010;BME280;51556;50.002;22.014;2023-01-19T00:33:59;97970.06;;;4.14;71.13
65010;BME280;51556;50.002;22.014;2023-01-19T00:36:24;97971.85;;;4.12;71.08
65010;BME280;51556;50.002;22.014;2023-01-19T00:38:50;97979.98;;;4.08;71.31
65010;BME280;51556;50.002;22.014;2023-01-19T00:41:16;97981.55;;;4.08;71.43
65010;BME280;51556;50.002;22.014;2023-01-19T00:43:42;97983.12;;;4.08;71.48
65010;BME280;51556;50.002;22.014;2023-01-19T00:46:07;97985.55;;;4.08;71.65
65010;BME280;51556;50.002;22.014;2023-01-19T00:48:33;97992.42;;;4.12;71.69
65010;BME280;51556;50.002;22.014;2023-01-19T00:50:58;97989.77;;;4.14;71.59
65010;BME280;51556;50.002;22.014;2023-01-19T00:53:24;97990.67;;;4.12;71.79
65010;BME280;51556;50.002;22.014;2023-01-19T00:55:50;97989.58;;;4.07;71.90
65010;BME280;51556;50.002;22.014;2023-01-19T00:58:16;97986.11;;;4.07;72.01
65010;BME280;51556;50.002;22.014;2023-01-19T01:00:41;97981.77;;;4.07;72.10
65010;BME280;51556;50.002;22.014;2023-01-19T01:03:08;97976.95;;;4.10;72.31
65010;BME280;51556;50.002;22.014;2023-01-19T01:05:34;97971.31;;;4.13;72.28
65010;BME280;51556;50.002;22.014;2023-01-19T01:07:59;97964.19;;;4.13;71.99
65010;BME280;51556;50.002;22.014;2023-01-19T01:10:27;97957.00;;;4.14;72.01
65010;BME280;51556;50.002;22.014;2023-01-19T01:12:53;97948.08;;;4.17;72.35
65010;BME280;51556;50.002;22.014;2023-01-19T01:15:19;97943.02;;;4.17;72.28
65010;BME280;51556;50.002;22.014;2023-01-19T01:17:46;97947.23;;;4.16;71.93
65010;BME280;51556;50.002;22.014;2023-01-19T01:20:24;97945.66;;;4.16;71.88
65010;BME280;51556;50.002;22.014;2023-01-19T01:22:52;97948.64;;;4.14;71.94
65010;BME280;51556;50.002;22.014;2023-01-19T01:25:19;97956.11;;;4.15;72.22
65010;BME280;51556;50.002;22.014;2023-01-19T01:27:47;97946.86;;;4.16;72.18
65010;BME280;51556;50.002;22.014;2023-01-19T01:30:13;97947.55;;;4.16;72.28
65010;BME280;51556;50.002;22.014;2023-01-19T01:32:39;97946.98;;;4.19;72.06
65010;BME280;51556;50.002;22.014;2023-01-19T01:35:05;97954.98;;;4.20;72.26
65010;BME280;51556;50.002;22.014;2023-01-19T01:37:31;97957.05;;;4.21;72.41
65010;BME280;51556;50.002;22.014;2023-01-19T01:39:56;97957.02;;;4.22;72.41
65010;BME280;51556;50.002;22.014;2023-01-19T01:42:27;97961.14;;;4.24;72.22
65010;BME280;51556;50.002;22.014;2023-01-19T01:44:55;97955.95;;;4.23;72.19
65010;BME280;51556;50.002;22.014;2023-01-19T01:47:31;97956.87;;;4.21;72.05
65010;BME280;51556;50.002;22.014;2023-01-19T01:50:23;97960.42;;;4.17;72.33
65010;BME280;51556;50.002;22.014;2023-01-19T01:53:01;97962.50;;;4.18;72.50
65010;BME280;51556;50.002;22.014;2023-01-19T01:55:27;97953.72;;;4.21;72.54
65010;BME280;51556;50.002;22.014;2023-01-19T01:57:57;97944.64;;;4.23;72.63
65010;BME280;51556;50.002;22.014;2023-01-19T02:00:25;97946.73;;;4.22;72.55
65010;BME280;51556;50.002;22.014;2023-01-19T02:02:51;97948.23;;;4.18;72.47
65010;BME280;51556;50.002;22.014;2023-01-19T02:05:36;97950.66;;;4.18;72.63
65010;BME280;51556;50.002;22.014;2023-01-19T02:08:03;97955.16;;;4.19;72.47
65010;BME280;51556;50.002;22.014;2023-01-19T02:10:50;97947.53;;;4.18;72.41
65010;BME280;51556;50.002;22.014;2023-01-19T02:13:37;97941.25;;;4.18;72.68
65010;BME280;51556;50.002;22.014;2023-01-19T02:16:07;97939.94;;;4.22;72.89
65010;BME280;51556;50.002;22.014;2023-01-19T02:18:34;97943.66;;;4.27;72.60
65010;BME280;51556;50.002;22.014;2023-01-19T02:21:13;97942.80;;;4.26;72.57
65010;BME280;51556;50.002;22.014;2023-01-19T02:23:53;97936.06;;;4.24;72.51
65010;BME280;51556;50.002;22.014;2023-01-19T02:26:23;97932.16;;;4.27;72.74
65010;BME280;51556;50.002;22.014;2023-01-19T02:29:02;97936.64;;;4.30;72.48
65010;BME280;51556;50.002;22.014;2023-01-19T02:31:29;97935.50;;;4.34;72.93
65010;BME280;51556;50.002;22.014;2023-01-19T02:33:56;97930.75;;;4.35;72.60
65010;BME280;51556;50.002;22.014;2023-01-19T02:36:30;97926.81;;;4.40;72.55
65010;BME280;51556;50.002;22.014;2023-01-19T02:38:57;97922.67;;;4.39;72.23
65010;BME280;51556;50.002;22.014;2023-01-19T02:41:29;97916.88;;;4.41;72.39
65010;BME280;51556;50.002;22.014;2023-01-19T02:43:57;97909.02;;;4.41;72.65
65010;BME280;51556;50.002;22.014;2023-01-19T02:46:23;97905.29;;;4.45;72.73
65010;BME280;51556;50.002;22.014;2023-01-19T02:48:49;97908.83;;;4.48;72.76
65010;BME280;51556;50.002;22.014;2023-01-19T02:51:23;97901.83;;;4.49;72.96
65010;BME280;51556;50.002;22.014;2023-01-19T03:02:21;97875.91;;;4.54;72.86
65010;BME280;51556;50.002;22.014;2023-01-19T03:11:03;97863.48;;;4.50;72.83
65010;BME280;51556;50.002;22.014;2023-01-19T03:13:43;97874.93;;;4.52;72.75
65010;BME280;51556;50.002;22.014;2023-01-19T03:16:29;97871.20;;;4.48;72.96
65010;BME280;51556;50.002;22.014;2023-01-19T03:21:38;97875.55;;;4.27;73.15
65010;BME280;51556;50.002;22.014;2023-01-19T03:24:08;97872.38;;;4.21;73.44
65010;BME280;51556;50.002;22.014;2023-01-19T03:26:41;97876.37;;;4.14;73.92
65010;BME280;51556;50.002;22.014;2023-01-19T03:29:09;97878.31;;;4.07;74.02
65010;BME280;51556;50.002;22.014;2023-01-19T03:31:39;97874.73;;;4.03;74.31
65010;BME280;51556;50.002;22.014;2023-01-19T03:34:09;97879.49;;;4.01;74.44
65010;BME280;51556;50.002;22.014;2023-01-19T03:36:48;97881.52;;;4.04;74.66
65010;BME280;51556;50.002;22.014;2023-01-19T03:39:18;97884.56;;;4.08;74.91
65010;BME280;51556;50.002;22.014;2023-01-19T03:41:47;97887.09;;;4.10;75.27
65010;BME280;51556;50.002;22.014;2023-01-19T03:44:13;97885.83;;;4.05;75.44
65010;BME280;51556;50.002;22.014;2023-01-19T03:46:39;97882.50;;;3.98;75.93
65010;BME280;51556;50.002;22.014;2023-01-19T03:49:05;97893.51;;;3.89;76.37
65010;BME280;51556;50.002;22.014;2023-01-19T03:51:35;97904.52;;;3.79;76.70
65010;BME280;51556;50.002;22.014;2023-01-19T03:54:02;97917.29;;;3.75;76.46
65010;BME280;51556;50.002;22.014;2023-01-19T03:56:28;97930.44;;;3.72;76.44
65010;BME280;51556;50.002;22.014;2023-01-19T03:58:54;97933.98;;;3.69;76.45
65010;BME280;51556;50.002;22.014;2023-01-19T04:01:19;97945.16;;;3.67;76.02
65010;BME280;51556;50.002;22.014;2023-01-19T04:03:47;97946.92;;;3.66;76.21
65010;BME280;51556;50.002;22.014;2023-01-19T04:06:13;97945.16;;;3.67;76.32
65010;BME280;51556;50.002;22.014;2023-01-19T04:08:38;97948.42;;;3.69;76.12
65010;BME280;51556;50.002;22.014;2023-01-19T04:11:05;97945.50;;;3.67;75.99
65010;BME280;51556;50.002;22.014;2023-01-19T04:13:32;97949.20;;;3.65;75.76
65010;BME280;51556;50.002;22.014;2023-01-19T04:16:02;97952.60;;;3.60;75.95
65010;BME280;51556;50.002;22.014;2023-01-19T04:18:29;97950.64;;;3.54;75.56
65010;BME280;51556;50.002;22.014;2023-01-19T04:20:58;97945.05;;;3.55;76.03
65010;BME280;51556;50.002;22.014;2023-01-19T04:23:24;97936.64;;;3.58;75.91
65010;BME280;51556;50.002;22.014;2023-01-19T04:25:56;97937.23;;;3.63;75.68
65010;BME280;51556;50.002;22.014;2023-01-19T04:28:21;97943.27;;;3.66;75.47
65010;BME280;51556;50.002;22.014;2023-01-19T04:30:49;97933.14;;;3.68;75.40
65010;BME280;51556;50.002;22.014;2023-01-19T04:33:15;97922.26;;;3.72;75.18
65010;BME280;51556;50.002;22.014;2023-01-19T04:35:41;97933.02;;;3.73;74.88
65010;BME280;51556;50.002;22.014;2023-01-19T04:38:06;97947.89;;;3.70;74.38
65010;BME280;51556;50.002;22.014;2023-01-19T04:40:32;97946.16;;;3.69;74.41
65010;BME280;51556;50.002;22.014;2023-01-19T04:42:57;97940.27;;;3.68;74.31
65010;BME280;51556;50.002;22.014;2023-01-19T04:45:23;97941.13;;;3.60;74.28
65010;BME280;51556;50.002;22.014;2023-01-19T04:47:49;97945.25;;;3.53;73.66
65010;BME280;51556;50.002;22.014;2023-01-19T04:50:15;97947.60;;;3.49;73.97
65010;BME280;51556;50.002;22.014;2023-01-19T04:52:41;97950.16;;;3.43;74.25
65010;BME280;51556;50.002;22.014;2023-01-19T04:55:07;97956.06;;;3.34;74.26
65010;BME280;51556;50.002;22.014;2023-01-19T04:57:33;97973.77;;;3.28;74.37
65010;BME280;51556;50.002;22.014;2023-01-19T04:59:58;97972.29;;;3.23;74.34
65010;BME280;51556;50.002;22.014;2023-01-19T05:02:24;97972.23;;;3.16;74.44
65010;BME280;51556;50.002;22.014;2023-01-19T05:04:50;97987.64;;;3.10;74.52
65010;BME280;51556;50.002;22.014;2023-01-19T05:07:16;97986.35;;;3.04;74.70
65010;BME280;51556;50.002;22.014;2023-01-19T05:09:41;97992.11;;;3.03;75.01
65010;BME280;51556;50.002;22.014;2023-01-19T05:12:07;98003.23;;;3.02;74.93
65010;BME280;51556;50.002;22.014;2023-01-19T05:14:32;97995.89;;;3.06;75.06
65010;BME280;51556;50.002;22.014;2023-01-19T05:16:58;97993.40;;;3.09;74.90
65010;BME280;51556;50.002;22.014;2023-01-19T05:19:24;97989.70;;;3.12;75.10
65010;BME280;51556;50.002;22.014;2023-01-19T05:21:50;97987.05;;;3.14;74.94
65010;BME280;51556;50.002;22.014;2023-01-19T05:24:16;97996.41;;;3.15;75.00
65010;BME280;51556;50.002;22.014;2023-01-19T05:26:42;97985.42;;;3.18;75.13
65010;BME280;51556;50.002;22.014;2023-01-19T05:29:07;97966.17;;;3.25;74.83
65010;BME280;51556;50.002;22.014;2023-01-19T05:31:34;97970.77;;;3.30;75.05
65010;BME280;51556;50.002;22.014;2023-01-19T05:34:00;97955.91;;;3.33;74.72
65010;BME280;51556;50.002;22.014;2023-01-19T05:36:25;97941.59;;;3.36;74.45
65010;BME280;51556;50.002;22.014;2023-01-19T05:38:51;97930.21;;;3.40;74.62
65010;BME280;51556;50.002;22.014;2023-01-19T05:41:17;97926.02;;;3.41;74.36
65010;BME280;51556;50.002;22.014;2023-01-19T05:43:42;97904.94;;;3.43;74.76
65010;BME280;51556;50.002;22.014;2023-01-19T05:46:07;97877.45;;;3.43;73.90
65010;BME280;51556;50.002;22.014;2023-01-19T05:48:33;97898.27;;;3.36;74.04
65010;BME280;51556;50.002;22.014;2023-01-19T05:50:59;97929.02;;;3.31;73.96
65010;BME280;51556;50.002;22.014;2023-01-19T05:53:24;97940.26;;;3.34;74.61
65010;BME280;51556;50.002;22.014;2023-01-19T05:55:50;97953.88;;;3.39;74.54
65010;BME280;51556;50.002;22.014;2023-01-19T05:58:15;97955.56;;;3.42;74.52
65010;BME280;51556;50.002;22.014;2023-01-19T06:00:41;97967.88;;;3.44;74.46
65010;BME280;51556;50.002;22.014;2023-01-19T06:03:07;97973.89;;;3.48;74.31
65010;BME280;51556;50.002;22.014;2023-01-19T06:05:32;97974.77;;;3.48;74.07
65010;BME280;51556;50.002;22.014;2023-01-19T06:07:59;97978.53;;;3.52;74.03
65010;BME280;51556;50.002;22.014;2023-01-19T06:10:24;97983.88;;;3.54;74.18
65010;BME280;51556;50.002;22.014;2023-01-19T06:12:49;97987.16;;;3.55;74.17
65010;BME280;51556;50.002;22.014;2023-01-19T06:15:17;97985.19;;;3.58;74.18
65010;BME280;51556;50.002;22.014;2023-01-19T06:17:42;97980.59;;;3.62;73.68
65010;BME280;51556;50.002;22.014;2023-01-19T06:20:08;97979.17;;;3.63;73.79
65010;BME280;51556;50.002;22.014;2023-01-19T06:22:34;97971.85;;;3.64;73.77
65010;BME280;51556;50.002;22.014;2023-01-19T06:24:59;97967.29;;;3.66;73.83
65010;BME280;51556;50.002;22.014;2023-01-19T06:27:25;97971.91;;;3.69;73.67
65010;BME280;51556;50.002;22.014;2023-01-19T06:29:50;97970.44;;;3.72;73.63
65010;BME280;51556;50.002;22.014;2023-01-19T06:32:16;97962.21;;;3.75;73.60
65010;BME280;51556;50.002;22.014;2023-01-19T06:34:41;97963.45;;;3.74;73.40
65010;BME280;51556;50.002;22.014;2023-01-19T06:37:11;97977.06;;;3.72;73.35
65010;BME280;51556;50.002;22.014;2023-01-19T06:39:37;97983.00;;;3.71;73.38
65010;BME280;51556;50.002;22.014;2023-01-19T06:42:05;97982.16;;;3.70;73.26
65010;BME280;51556;50.002;22.014;2023-01-19T06:44:31;97971.94;;;3.68;73.34
65010;BME280;51556;50.002;22.014;2023-01-19T06:46:56;97965.54;;;3.67;73.32
65010;BME280;51556;50.002;22.014;2023-01-19T06:49:22;97975.10;;;3.67;73.46
65010;BME280;51556;50.002;22.014;2023-01-19T06:51:47;97970.02;;;3.68;73.45
65010;BME280;51556;50.002;22.014;2023-01-19T06:54:12;97962.03;;;3.68;73.42
65010;BME280;51556;50.002;22.014;2023-01-19T06:56:38;97958.94;;;3.66;73.27
65010;BME280;51556;50.002;22.014;2023-01-19T06:59:03;97956.89;;;3.64;73.35
65010;BME280;51556;50.002;22.014;2023-01-19T07:01:29;97954.85;;;3.61;73.37
65010;BME280;51556;50.002;22.014;2023-01-19T07:03:54;97953.17;;;3.58;73.64
65010;BME280;51556;50.002;22.014;2023-01-19T07:06:20;97964.84;;;3.57;73.61
65010;BME280;51556;50.002;22.014;2023-01-19T07:08:45;97976.85;;;3.57;73.48
65010;BME280;51556;50.002;22.014;2023-01-19T07:11:11;97981.35;;;3.58;73.66
65010;BME280;51556;50.002;22.014;2023-01-19T07:13:38;97985.70;;;3.58;73.49
65010;BME280;51556;50.002;22.014;2023-01-19T07:16:09;97986.36;;;3.60;73.61
65010;BME280;51556;50.002;22.014;2023-01-19T07:18:36;97995.36;;;3.63;73.52
65010;BME280;51556;50.002;22.014;2023-01-19T07:21:02;98009.63;;;3.63;73.58
65010;BME280;51556;50.002;22.014;2023-01-19T07:23:28;98014.14;;;3.64;73.50
65010;BME280;51556;50.002;22.014;2023-01-19T07:25:55;98016.52;;;3.67;73.71
65010;BME280;51556;50.002;22.014;2023-01-19T07:28:21;98022.24;;;3.68;73.34
65010;BME280;51556;50.002;22.014;2023-01-19T07:30:50;98026.60;;;3.67;73.35
65010;BME280;51556;50.002;22.014;2023-01-19T07:33:16;98039.83;;;3.67;73.35
65010;BME280;51556;50.002;22.014;2023-01-19T07:35:45;98048.21;;;3.66;73.49
65010;BME280;51556;50.002;22.014;2023-01-19T07:38:11;98047.73;;;3.63;73.54
65010;BME280;51556;50.002;22.014;2023-01-19T07:40:37;98044.77;;;3.63;73.48
65010;BME280;51556;50.002;22.014;2023-01-19T07:43:02;98048.08;;;3.63;73.54
65010;BME280;51556;50.002;22.014;2023-01-19T07:45:28;98049.64;;;3.63;73.23
65010;BME280;51556;50.002;22.014;2023-01-19T07:47:53;98049.45;;;3.64;73.63
65010;BME280;51556;50.002;22.014;2023-01-19T07:50:19;98044.21;;;3.65;73.70
65010;BME280;51556;50.002;22.014;2023-01-19T07:52:49;98029.59;;;3.65;73.54
65010;BME280;51556;50.002;22.014;2023-01-19T07:55:18;98011.16;;;3.64;73.68
65010;BME280;51556;50.002;22.014;2023-01-19T07:57:44;97998.61;;;3.66;73.70
65010;BME280;51556;50.002;22.014;2023-01-19T08:00:10;98002.77;;;3.66;73.44
65010;BME280;51556;50.002;22.014;2023-01-19T08:02:35;98003.36;;;3.63;73.31
65010;BME280;51556;50.002;22.014;2023-01-19T08:05:02;98000.57;;;3.63;73.66
65010;BME280;51556;50.002;22.014;2023-01-19T08:07:27;97999.87;;;3.64;73.48
65010;BME280;51556;50.002;22.014;2023-01-19T08:09:53;98000.36;;;3.65;73.82
65010;BME280;51556;50.002;22.014;2023-01-19T08:12:18;98005.73;;;3.67;73.80
65010;BME280;51556;50.002;22.014;2023-01-19T08:14:44;98008.30;;;3.69;73.76
65010;BME280;51556;50.002;22.014;2023-01-19T08:17:11;98004.44;;;3.71;73.89
65010;BME280;51556;50.002;22.014;2023-01-19T08:19:37;97995.34;;;3.72;73.71
65010;BME280;51556;50.002;22.014;2023-01-19T08:22:03;97987.68;;;3.72;73.82
65010;BME280;51556;50.002;22.014;2023-01-19T08:24:30;97981.36;;;3.74;73.59
65010;BME280;51556;50.002;22.014;2023-01-19T08:27:00;97970.98;;;3.72;73.56
65010;BME280;51556;50.002;22.014;2023-01-19T08:29:27;97964.94;;;3.70;73.28
65010;BME280;51556;50.002;22.014;2023-01-19T08:31:54;97951.21;;;3.69;73.46
65010;BME280;51556;50.002;22.014;2023-01-19T08:34:22;97951.77;;;3.67;73.45
65010;BME280;51556;50.002;22.014;2023-01-19T08:36:48;97957.89;;;3.66;73.27
65010;BME280;51556;50.002;22.014;2023-01-19T08:39:13;97961.73;;;3.65;73.72
65010;BME280;51556;50.002;22.014;2023-01-19T08:41:39;97973.23;;;3.65;73.50
65010;BME280;51556;50.002;22.014;2023-01-19T08:44:04;97976.17;;;3.66;73.68
65010;BME280;51556;50.002;22.014;2023-01-19T08:46:30;97978.21;;;3.68;73.54
65010;BME280;51556;50.002;22.014;2023-01-19T08:48:56;97972.30;;;3.67;73.60
65010;BME280;51556;50.002;22.014;2023-01-19T08:51:22;97977.39;;;3.66;73.76
65010;BME280;51556;50.002;22.014;2023-01-19T08:53:48;97977.86;;;3.59;73.53
65010;BME280;51556;50.002;22.014;2023-01-19T08:56:13;97975.71;;;3.53;73.83
65010;BME280;51556;50.002;22.014;2023-01-19T08:58:40;97984.77;;;3.52;73.88
65010;BME280;51556;50.002;22.014;2023-01-19T09:01:06;97986.85;;;3.53;73.94
65010;BME280;51556;50.002;22.014;2023-01-19T09:03:35;97981.97;;;3.53;74.17
65010;BME280;51556;50.002;22.014;2023-01-19T09:06:04;97983.05;;;3.51;73.82
65010;BME280;51556;50.002;22.014;2023-01-19T09:08:29;97988.10;;;3.51;74.04
65010;BME280;51556;50.002;22.014;2023-01-19T09:10:55;97992.77;;;3.53;74.21
65010;BME280;51556;50.002;22.014;2023-01-19T09:13:21;97985.44;;;3.54;74.29
65010;BME280;51556;50.002;22.014;2023-01-19T09:15:47;97980.86;;;3.57;74.37
65010;BME280;51556;50.002;22.014;2023-01-19T09:18:15;97967.52;;;3.54;74.41
65010;BME280;51556;50.002;22.014;2023-01-19T09:20:41;97948.19;;;3.46;74.19
65010;BME280;51556;50.002;22.014;2023-01-19T09:23:09;97949.35;;;3.40;74.31
65010;BME280;51556;50.002;22.014;2023-01-19T09:25:38;97946.81;;;3.36;74.53
65010;BME280;51556;50.002;22.014;2023-01-19T09:28:08;97945.40;;;3.37;74.53
65010;BME280;51556;50.002;22.014;2023-01-19T09:30:35;97946.70;;;3.41;74.67
65010;BME280;51556;50.002;22.014;2023-01-19T09:33:06;97938.83;;;3.44;74.69
65010;BME280;51556;50.002;22.014;2023-01-19T09:35:33;97939.30;;;3.47;74.46
65010;BME280;51556;50.002;22.014;2023-01-19T09:37:59;97945.51;;;3.49;74.53
65010;BME280;51556;50.002;22.014;2023-01-19T09:40:26;97944.43;;;3.51;74.50
65010;BME280;51556;50.002;22.014;2023-01-19T09:42:55;97936.92;;;3.52;74.68
65010;BME280;51556;50.002;22.014;2023-01-19T09:45:34;97932.92;;;3.53;74.42
65010;BME280;51556;50.002;22.014;2023-01-19T09:48:03;97934.07;;;3.56;74.67
65010;BME280;51556;50.002;22.014;2023-01-19T09:50:33;97930.77;;;3.56;74.49
65010;BME280;51556;50.002;22.014;2023-01-19T09:53:19;97928.44;;;3.59;74.28
65010;BME280;51556;50.002;22.014;2023-01-19T09:55:47;97921.07;;;3.62;74.26
65010;BME280;51556;50.002;22.014;2023-01-19T09:58:15;97920.50;;;3.65;74.30
65010;BME280;51556;50.002;22.014;2023-01-19T10:00:46;97920.05;;;3.62;74.18
65010;BME280;51556;50.002;22.014;2023-01-19T10:03:15;97923.60;;;3.58;74.12
65010;BME280;51556;50.002;22.014;2023-01-19T10:05:43;97921.74;;;3.55;74.20
65010;BME280;51556;50.002;22.014;2023-01-19T10:11:17;97930.31;;;3.53;74.30
65010;BME280;51556;50.002;22.014;2023-01-19T10:13:49;97923.71;;;3.52;74.41
65010;BME280;51556;50.002;22.014;2023-01-19T10:19:29;97903.80;;;3.48;74.38
65010;BME280;51556;50.002;22.014;2023-01-19T10:21:59;97900.00;;;3.46;74.54
65010;BME280;51556;50.002;22.014;2023-01-19T10:24:40;97897.71;;;3.39;74.21
65010;BME280;51556;50.002;22.014;2023-01-19T10:27:19;97893.86;;;3.32;74.53
65010;BME280;51556;50.002;22.014;2023-01-19T10:29:46;97886.33;;;3.34;74.91
65010;BME280;51556;50.002;22.014;2023-01-19T10:32:16;97886.34;;;3.34;74.75
65010;BME280;51556;50.002;22.014;2023-01-19T10:34:48;97880.21;;;3.35;74.49
65010;BME280;51556;50.002;22.014;2023-01-19T10:39:59;97887.81;;;3.30;74.71
65010;BME280;51556;50.002;22.014;2023-01-19T10:42:28;97881.24;;;3.28;74.95
65010;BME280;51556;50.002;22.014;2023-01-19T10:44:54;97877.04;;;3.29;74.73
65010;BME280;51556;50.002;22.014;2023-01-19T10:47:21;97873.83;;;3.25;75.25
65010;BME280;51556;50.002;22.014;2023-01-19T10:49:51;97870.46;;;3.19;75.18
65010;BME280;51556;50.002;22.014;2023-01-19T10:52:26;97869.35;;;3.23;75.07
65010;BME280;51556;50.002;22.014;2023-01-19T10:54:54;97871.73;;;3.26;75.13
65010;BME280;51556;50.002;22.014;2023-01-19T10:57:40;97867.88;;;3.27;74.91
65010;BME280;51556;50.002;22.014;2023-01-19T11:02:59;97870.48;;;3.27;75.07
65010;BME280;51556;50.002;22.014;2023-01-19T11:05:27;97875.59;;;3.32;75.17
65010;BME280;51556;50.002;22.014;2023-01-19T11:07:52;97874.35;;;3.33;74.67
65010;BME280;51556;50.002;22.014;2023-01-19T11:17:55;97882.10;;;3.36;74.82
65010;BME280;51556;50.002;22.014;2023-01-19T11:20:28;97878.95;;;3.38;74.92
65010;BME280;51556;50.002;22.014;2023-01-19T11:23:06;97882.39;;;3.39;74.95
65010;BME280;51556;50.002;22.014;2023-01-19T11:25:35;97873.48;;;3.41;74.62
65010;BME280;51556;50.002;22.014;2023-01-19T11:28:01;97872.23;;;3.43;74.45
65010;BME280;51556;50.002;22.014;2023-01-19T11:30:34;97868.04;;;3.44;75.00
65010;BME280;51556;50.002;22.014;2023-01-19T11:32:59;97864.34;;;3.46;74.62
65010;BME280;51556;50.002;22.014;2023-01-19T11:40:38;97871.30;;;3.54;74.67
65010;BME280;51556;50.002;22.014;2023-01-19T11:43:04;97870.54;;;3.57;74.47
65010;BME280;51556;50.002;22.014;2023-01-19T11:45:32;97862.36;;;3.57;74.20
65010;BME280;51556;50.002;22.014;2023-01-19T11:48:03;97856.61;;;3.58;74.65
65010;BME280;51556;50.002;22.014;2023-01-19T11:50:40;97853.83;;;3.58;74.57
65010;BME280;51556;50.002;22.014;2023-01-19T11:53:12;97848.97;;;3.57;74.34
65010;BME280;51556;50.002;22.014;2023-01-19T11:58:17;97849.40;;;3.54;74.06
65010;BME280;51556;50.002;22.014;2023-01-19T12:03:22;97854.27;;;3.45;73.91
65010;BME280;51556;50.002;22.014;2023-01-19T12:05:51;97856.34;;;3.46;74.38
65010;BME280;51556;50.002;22.014;2023-01-19T12:08:29;97844.98;;;3.48;74.53
65010;BME280;51556;50.002;22.014;2023-01-19T12:10:58;97839.70;;;3.52;74.63
65010;BME280;51556;50.002;22.014;2023-01-19T12:13:26;97833.70;;;3.55;74.26
65010;BME280;51556;50.002;22.014;2023-01-19T12:18:27;97815.96;;;3.55;74.10
65010;BME280;51556;50.002;22.014;2023-01-19T12:20:54;97813.52;;;3.55;74.04
65010;BME280;51556;50.002;22.014;2023-01-19T12:28:39;97816.90;;;3.60;74.34
65010;BME280;51556;50.002;22.014;2023-01-19T12:31:06;97815.30;;;3.61;74.20
65010;BME280;51556;50.002;22.014;2023-01-19T12:38:49;97819.90;;;3.58;74.08
65010;BME280;51556;50.002;22.014;2023-01-19T12:41:25;97820.82;;;3.56;74.01
65010;BME280;51556;50.002;22.014;2023-01-19T12:46:53;97823.98;;;3.61;74.07
65010;BME280;51556;50.002;22.014;2023-01-19T12:52:17;97822.13;;;3.67;73.96
65010;BME280;51556;50.002;22.014;2023-01-19T12:57:55;97829.33;;;3.71;73.88
65010;BME280;51556;50.002;22.014;2023-01-19T13:05:21;97835.55;;;3.73;73.80
65010;BME280;51556;50.002;22.014;2023-01-19T13:08:13;97844.73;;;3.75;73.86
65010;BME280;51556;50.002;22.014;2023-01-19T13:13:21;97846.92;;;3.78;73.64
65010;BME280;51556;50.002;22.014;2023-01-19T13:15:47;97842.89;;;3.79;73.62
65010;BME280;51556;50.002;22.014;2023-01-19T13:18:28;97840.30;;;3.79;73.74
65010;BME280;51556;50.002;22.014;2023-01-19T13:23:28;97849.52;;;3.79;73.46
65010;BME280;51556;50.002;22.014;2023-01-19T13:26:04;97850.20;;;3.80;73.54
65010;BME280;51556;50.002;22.014;2023-01-19T13:28:37;97861.16;;;3.80;73.36
65010;BME280;51556;50.002;22.014;2023-01-19T13:31:04;97874.42;;;3.78;73.14
65010;BME280;51556;50.002;22.014;2023-01-19T13:33:58;97883.37;;;3.75;73.18
65010;BME280;51556;50.002;22.014;2023-01-19T13:36:26;97889.90;;;3.71;73.34
65010;BME280;51556;50.002;22.014;2023-01-19T13:38:53;97894.60;;;3.71;73.53
65010;BME280;51556;50.002;22.014;2023-01-19T13:41:22;97897.94;;;3.70;73.56
65010;BME280;51556;50.002;22.014;2023-01-19T13:43:55;97897.12;;;3.68;73.39
65010;BME280;51556;50.002;22.014;2023-01-19T13:46:23;97903.77;;;3.66;73.62
65010;BME280;51556;50.002;22.014;2023-01-19T13:48:56;97908.32;;;3.64;73.51
65010;BME280;51556;50.002;22.014;2023-01-19T13:51:22;97911.61;;;3.65;73.47
65010;BME280;51556;50.002;22.014;2023-01-19T13:53:58;97909.83;;;3.67;73.71
65010;BME280;51556;50.002;22.014;2023-01-19T13:56:27;97913.25;;;3.70;73.52
65010;BME280;51556;50.002;22.014;2023-01-19T13:59:11;97911.73;;;3.75;73.48
65010;BME280;51556;50.002;22.014;2023-01-19T14:01:42;97913.77;;;3.77;73.21
65010;BME280;51556;50.002;22.014;2023-01-19T14:06:55;97917.02;;;3.80;73.47
65010;BME280;51556;50.002;22.014;2023-01-19T14:09:21;97917.74;;;3.79;73.09
65010;BME280;51556;50.002;22.014;2023-01-19T14:12:08;97919.70;;;3.77;72.99
65010;BME280;51556;50.002;22.014;2023-01-19T14:14:35;97918.25;;;3.80;73.20
65010;BME280;51556;50.002;22.014;2023-01-19T14:17:01;97924.81;;;3.82;72.81
65010;BME280;51556;50.002;22.014;2023-01-19T14:19:26;97921.98;;;3.84;73.19
65010;BME280;51556;50.002;22.014;2023-01-19T14:22:01;97922.14;;;3.84;73.01
65010;BME280;51556;50.002;22.014;2023-01-19T14:24:27;97917.12;;;3.84;73.00
65010;BME280;51556;50.002;22.014;2023-01-19T14:29:35;97912.75;;;3.85;73.00
65010;BME280;51556;50.002;22.014;2023-01-19T14:34:44;97911.67;;;3.86;72.68